Terminal Aerodrome Forecast
Issued by NWS

Current Version | Previous Version | Text Only | Print | Product List | Glossary On
Versions: 1 2 3 4 5 6 7 8 9 10 11 12 13 14 15 16 17 18 19 20 21 22 23
000
FTUS45 KTWC 301700
TAFOLS
TAF
KOLS 301735Z 3018/3118 VRB03KT P6SM FEW090
     FM302100 24007KT P6SM SCT090
     FM310200 16004KT P6SM FEW090
     FM310500 VRB03KT P6SM SKC=

USA.gov is the U.S. government's official web portal to all federal, state and local government web resources and services.